sensor_id;sensor_type;location;lat;lon;timestamp;P1;durP1;ratioP1;P2;durP2;ratioP2
55090;SDS011;40985;53.180;5.800;2023-04-01T00:00:56;8.20;;;7.30;;
55090;SDS011;40985;53.180;5.800;2023-04-01T00:03:23;6.97;;;6.28;;
55090;SDS011;40985;53.180;5.800;2023-04-01T00:05:50;8.48;;;7.68;;
55090;SDS011;40985;53.180;5.800;2023-04-01T00:08:16;7.95;;;6.43;;
55090;SDS011;40985;53.180;5.800;2023-04-01T00:10:42;7.22;;;6.60;;
55090;SDS011;40985;53.180;5.800;2023-04-01T00:13:08;8.15;;;7.45;;
55090;SDS011;40985;53.180;5.800;2023-04-01T00:15:34;9.02;;;8.13;;
55090;SDS011;40985;53.180;5.800;2023-04-01T00:18:01;7.78;;;7.18;;
55090;SDS011;40985;53.180;5.800;2023-04-01T00:20:27;11.80;;;8.70;;
55090;SDS011;40985;53.180;5.800;2023-04-01T00:22:53;10.20;;;8.70;;
55090;SDS011;40985;53.180;5.800;2023-04-01T00:25:20;9.82;;;8.63;;
55090;SDS011;40985;53.180;5.800;2023-04-01T00:27:45;9.30;;;8.52;;
55090;SDS011;40985;53.180;5.800;2023-04-01T00:30:11;9.30;;;8.50;;
55090;SDS011;40985;53.180;5.800;2023-04-01T00:32:37;10.43;;;9.38;;
55090;SDS011;40985;53.180;5.800;2023-04-01T00:35:06;9.98;;;9.07;;
55090;SDS011;40985;53.180;5.800;2023-04-01T00:37:33;9.52;;;8.68;;
55090;SDS011;40985;53.180;5.800;2023-04-01T00:40:00;9.98;;;8.98;;
55090;SDS011;40985;53.180;5.800;2023-04-01T00:42:26;9.68;;;8.70;;
55090;SDS011;40985;53.180;5.800;2023-04-01T00:44:54;10.18;;;9.27;;
55090;SDS011;40985;53.180;5.800;2023-04-01T00:47:20;10.80;;;9.70;;
55090;SDS011;40985;53.180;5.800;2023-04-01T00:49:47;10.95;;;9.38;;
55090;SDS011;40985;53.180;5.800;2023-04-01T00:52:19;11.32;;;9.73;;
55090;SDS011;40985;53.180;5.800;2023-04-01T00:54:48;11.68;;;10.10;;
55090;SDS011;40985;53.180;5.800;2023-04-01T00:57:21;12.50;;;10.13;;
55090;SDS011;40985;53.180;5.800;2023-04-01T00:59:54;12.23;;;10.32;;
55090;SDS011;40985;53.180;5.800;2023-04-01T01:02:21;11.25;;;10.15;;
55090;SDS011;40985;53.180;5.800;2023-04-01T01:04:47;12.32;;;10.23;;
55090;SDS011;40985;53.180;5.800;2023-04-01T01:18:24;11.88;;;10.02;;
55090;SDS011;40985;53.180;5.800;2023-04-01T01:27:03;13.40;;;10.50;;
55090;SDS011;40985;53.180;5.800;2023-04-01T01:35:22;12.05;;;10.30;;
55090;SDS011;40985;53.180;5.800;2023-04-01T01:37:50;12.85;;;11.27;;
55090;SDS011;40985;53.180;5.800;2023-04-01T01:40:21;13.35;;;11.00;;
55090;SDS011;40985;53.180;5.800;2023-04-01T01:42:51;12.88;;;11.55;;
55090;SDS011;40985;53.180;5.800;2023-04-01T01:45:21;12.13;;;10.90;;
55090;SDS011;40985;53.180;5.800;2023-04-01T01:47:49;12.65;;;11.13;;
55090;SDS011;40985;53.180;5.800;2023-04-01T01:50:17;17.27;;;11.95;;
55090;SDS011;40985;53.180;5.800;2023-04-01T01:52:44;16.02;;;11.43;;
55090;SDS011;40985;53.180;5.800;2023-04-01T01:55:32;13.05;;;11.70;;
55090;SDS011;40985;53.180;5.800;2023-04-01T01:58:02;13.30;;;11.07;;
55090;SDS011;40985;53.180;5.800;2023-04-01T02:00:38;15.23;;;12.07;;
55090;SDS011;40985;53.180;5.800;2023-04-01T02:03:05;13.68;;;11.40;;
55090;SDS011;40985;53.180;5.800;2023-04-01T02:05:31;15.90;;;12.63;;
55090;SDS011;40985;53.180;5.800;2023-04-01T02:08:20;14.02;;;12.18;;
55090;SDS011;40985;53.180;5.800;2023-04-01T02:10:52;14.77;;;12.27;;
55090;SDS011;40985;53.180;5.800;2023-04-01T02:13:30;16.70;;;12.18;;
55090;SDS011;40985;53.180;5.800;2023-04-01T02:16:16;14.05;;;12.43;;
55090;SDS011;40985;53.180;5.800;2023-04-01T02:18:47;14.27;;;11.90;;
55090;SDS011;40985;53.180;5.800;2023-04-01T02:21:18;14.18;;;12.20;;
55090;SDS011;40985;53.180;5.800;2023-04-01T02:23:47;16.52;;;12.35;;
55090;SDS011;40985;53.180;5.800;2023-04-01T02:26:13;15.80;;;12.55;;
55090;SDS011;40985;53.180;5.800;2023-04-01T02:28:40;16.90;;;12.82;;
55090;SDS011;40985;53.180;5.800;2023-04-01T02:31:11;18.25;;;12.95;;
55090;SDS011;40985;53.180;5.800;2023-04-01T02:33:39;17.70;;;13.18;;
55090;SDS011;40985;53.180;5.800;2023-04-01T02:36:05;15.38;;;13.27;;
55090;SDS011;40985;53.180;5.800;2023-04-01T02:38:32;15.85;;;12.60;;
55090;SDS011;40985;53.180;5.800;2023-04-01T02:41:01;17.25;;;13.15;;
55090;SDS011;40985;53.180;5.800;2023-04-01T02:43:28;17.30;;;13.48;;
55090;SDS011;40985;53.180;5.800;2023-04-01T02:45:54;18.58;;;14.35;;
55090;SDS011;40985;53.180;5.800;2023-04-01T02:48:20;17.77;;;13.27;;
55090;SDS011;40985;53.180;5.800;2023-04-01T02:50:46;17.65;;;13.55;;
55090;SDS011;40985;53.180;5.800;2023-04-01T02:53:14;18.10;;;13.90;;
55090;SDS011;40985;53.180;5.800;2023-04-01T02:55:40;18.15;;;13.25;;
55090;SDS011;40985;53.180;5.800;2023-04-01T02:58:06;20.17;;;14.40;;
55090;SDS011;40985;53.180;5.800;2023-04-01T03:00:32;18.52;;;14.48;;
55090;SDS011;40985;53.180;5.800;2023-04-01T03:02:58;19.52;;;14.15;;
55090;SDS011;40985;53.180;5.800;2023-04-01T03:05:24;18.23;;;14.05;;
55090;SDS011;40985;53.180;5.800;2023-04-01T03:07:50;17.52;;;13.57;;
55090;SDS011;40985;53.180;5.800;2023-04-01T03:10:15;19.88;;;14.05;;
55090;SDS011;40985;53.180;5.800;2023-04-01T03:12:41;19.10;;;14.88;;
55090;SDS011;40985;53.180;5.800;2023-04-01T03:15:09;22.90;;;14.75;;
55090;SDS011;40985;53.180;5.800;2023-04-01T03:17:37;20.35;;;13.85;;
55090;SDS011;40985;53.180;5.800;2023-04-01T03:20:03;18.67;;;13.40;;
55090;SDS011;40985;53.180;5.800;2023-04-01T03:22:30;20.33;;;13.88;;
55090;SDS011;40985;53.180;5.800;2023-04-01T03:24:56;15.88;;;13.30;;
55090;SDS011;40985;53.180;5.800;2023-04-01T03:27:21;17.40;;;13.70;;
55090;SDS011;40985;53.180;5.800;2023-04-01T03:29:48;19.05;;;14.13;;
55090;SDS011;40985;53.180;5.800;2023-04-01T03:32:13;16.42;;;12.98;;
55090;SDS011;40985;53.180;5.800;2023-04-01T03:34:40;19.45;;;13.55;;
55090;SDS011;40985;53.180;5.800;2023-04-01T03:37:05;16.77;;;13.43;;
55090;SDS011;40985;53.180;5.800;2023-04-01T03:39:31;17.42;;;13.98;;
55090;SDS011;40985;53.180;5.800;2023-04-01T03:41:57;23.23;;;15.20;;
55090;SDS011;40985;53.180;5.800;2023-04-01T03:44:22;20.58;;;15.27;;
55090;SDS011;40985;53.180;5.800;2023-04-01T03:46:48;20.77;;;14.35;;
55090;SDS011;40985;53.180;5.800;2023-04-01T03:49:15;22.20;;;15.35;;
55090;SDS011;40985;53.180;5.800;2023-04-01T03:51:41;21.70;;;15.30;;
55090;SDS011;40985;53.180;5.800;2023-04-01T03:54:08;21.35;;;14.80;;
55090;SDS011;40985;53.180;5.800;2023-04-01T03:56:34;22.80;;;15.45;;
55090;SDS011;40985;53.180;5.800;2023-04-01T03:59:04;21.55;;;13.98;;
55090;SDS011;40985;53.180;5.800;2023-04-01T04:01:30;20.98;;;14.93;;
55090;SDS011;40985;53.180;5.800;2023-04-01T04:03:56;22.30;;;14.32;;
55090;SDS011;40985;53.180;5.800;2023-04-01T04:06:22;22.05;;;14.60;;
55090;SDS011;40985;53.180;5.800;2023-04-01T04:08:49;21.27;;;14.75;;
55090;SDS011;40985;53.180;5.800;2023-04-01T04:11:15;20.35;;;14.15;;
55090;SDS011;40985;53.180;5.800;2023-04-01T04:13:41;22.80;;;14.65;;
55090;SDS011;40985;53.180;5.800;2023-04-01T04:16:08;21.52;;;14.25;;
55090;SDS011;40985;53.180;5.800;2023-04-01T04:18:35;25.80;;;15.60;;
55090;SDS011;40985;53.180;5.800;2023-04-01T04:21:01;22.40;;;14.55;;
55090;SDS011;40985;53.180;5.800;2023-04-01T04:23:28;24.90;;;14.93;;
55090;SDS011;40985;53.180;5.800;2023-04-01T04:26:04;24.70;;;15.55;;
55090;SDS011;40985;53.180;5.800;2023-04-01T04:28:32;25.70;;;15.70;;
55090;SDS011;40985;53.180;5.800;2023-04-01T04:30:57;27.42;;;17.05;;
55090;SDS011;40985;53.180;5.800;2023-04-01T04:33:23;26.98;;;15.63;;
55090;SDS011;40985;53.180;5.800;2023-04-01T04:35:50;26.60;;;16.42;;
55090;SDS011;40985;53.180;5.800;2023-04-01T04:38:16;29.00;;;16.40;;
55090;SDS011;40985;53.180;5.800;2023-04-01T04:40:42;27.30;;;17.10;;
55090;SDS011;40985;53.180;5.800;2023-04-01T04:43:12;26.60;;;16.92;;
55090;SDS011;40985;53.180;5.800;2023-04-01T04:45:39;26.02;;;17.45;;
55090;SDS011;40985;53.180;5.800;2023-04-01T04:48:07;31.80;;;18.17;;
55090;SDS011;40985;53.180;5.800;2023-04-01T04:50:34;25.17;;;16.05;;
55090;SDS011;40985;53.180;5.800;2023-04-01T04:53:00;28.45;;;17.70;;
55090;SDS011;40985;53.180;5.800;2023-04-01T04:55:26;32.13;;;17.75;;
55090;SDS011;40985;53.180;5.800;2023-04-01T04:57:52;28.65;;;17.58;;
55090;SDS011;40985;53.180;5.800;2023-04-01T05:00:17;28.73;;;17.90;;
55090;SDS011;40985;53.180;5.800;2023-04-01T05:02:43;30.95;;;18.15;;
55090;SDS011;40985;53.180;5.800;2023-04-01T05:05:09;28.13;;;17.83;;
55090;SDS011;40985;53.180;5.800;2023-04-01T05:07:35;29.33;;;18.33;;
55090;SDS011;40985;53.180;5.800;2023-04-01T05:10:01;32.35;;;18.80;;
55090;SDS011;40985;53.180;5.800;2023-04-01T05:12:27;29.40;;;18.52;;
55090;SDS011;40985;53.180;5.800;2023-04-01T05:14:53;31.05;;;18.80;;
55090;SDS011;40985;53.180;5.800;2023-04-01T05:17:19;32.35;;;19.80;;
55090;SDS011;40985;53.180;5.800;2023-04-01T05:19:45;30.88;;;19.13;;
55090;SDS011;40985;53.180;5.800;2023-04-01T05:22:11;32.00;;;20.15;;
55090;SDS011;40985;53.180;5.800;2023-04-01T05:24:37;37.13;;;21.13;;
55090;SDS011;40985;53.180;5.800;2023-04-01T05:27:02;32.50;;;21.08;;
55090;SDS011;40985;53.180;5.800;2023-04-01T05:29:28;33.72;;;20.42;;
55090;SDS011;40985;53.180;5.800;2023-04-01T05:31:54;38.00;;;20.73;;
55090;SDS011;40985;53.180;5.800;2023-04-01T05:34:19;38.55;;;21.60;;
55090;SDS011;40985;53.180;5.800;2023-04-01T05:36:46;34.80;;;21.92;;
55090;SDS011;40985;53.180;5.800;2023-04-01T05:39:15;36.20;;;20.08;;
55090;SDS011;40985;53.180;5.800;2023-04-01T05:41:40;34.35;;;21.48;;
55090;SDS011;40985;53.180;5.800;2023-04-01T05:44:06;37.25;;;21.98;;
55090;SDS011;40985;53.180;5.800;2023-04-01T05:46:32;33.55;;;21.73;;
55090;SDS011;40985;53.180;5.800;2023-04-01T05:48:57;35.83;;;21.02;;
55090;SDS011;40985;53.180;5.800;2023-04-01T05:51:23;33.30;;;21.15;;
55090;SDS011;40985;53.180;5.800;2023-04-01T05:53:49;33.92;;;21.35;;
55090;SDS011;40985;53.180;5.800;2023-04-01T05:56:15;34.97;;;21.65;;
55090;SDS011;40985;53.180;5.800;2023-04-01T05:58:40;32.42;;;20.52;;
55090;SDS011;40985;53.180;5.800;2023-04-01T06:01:07;36.28;;;22.45;;
55090;SDS011;40985;53.180;5.800;2023-04-01T06:03:35;34.30;;;21.42;;
55090;SDS011;40985;53.180;5.800;2023-04-01T06:06:01;36.53;;;21.25;;
55090;SDS011;40985;53.180;5.800;2023-04-01T06:08:28;34.30;;;21.88;;
55090;SDS011;40985;53.180;5.800;2023-04-01T06:20:03;36.58;;;21.52;;
55090;SDS011;40985;53.180;5.800;2023-04-01T06:25:51;30.45;;;21.20;;
55090;SDS011;40985;53.180;5.800;2023-04-01T06:39:29;31.98;;;19.65;;
55090;SDS011;40985;53.180;5.800;2023-04-01T06:42:24;29.30;;;17.83;;
55090;SDS011;40985;53.180;5.800;2023-04-01T06:45:51;29.60;;;17.85;;
55090;SDS011;40985;53.180;5.800;2023-04-01T06:54:09;24.33;;;15.63;;
55090;SDS011;40985;53.180;5.800;2023-04-01T06:56:50;24.52;;;16.55;;
55090;SDS011;40985;53.180;5.800;2023-04-01T06:59:25;23.92;;;16.33;;
55090;SDS011;40985;53.180;5.800;2023-04-01T07:01:59;22.38;;;15.68;;
55090;SDS011;40985;53.180;5.800;2023-04-01T07:04:40;23.17;;;16.38;;
55090;SDS011;40985;53.180;5.800;2023-04-01T07:13:00;26.33;;;18.80;;
55090;SDS011;40985;53.180;5.800;2023-04-01T07:15:36;26.23;;;17.35;;
55090;SDS011;40985;53.180;5.800;2023-04-01T07:18:07;29.33;;;19.38;;
55090;SDS011;40985;53.180;5.800;2023-04-01T07:20:42;25.77;;;18.23;;
55090;SDS011;40985;53.180;5.800;2023-04-01T07:23:28;26.90;;;19.52;;
55090;SDS011;40985;53.180;5.800;2023-04-01T07:26:07;27.42;;;18.65;;
55090;SDS011;40985;53.180;5.800;2023-04-01T07:28:46;26.52;;;18.63;;
55090;SDS011;40985;53.180;5.800;2023-04-01T07:34:04;30.65;;;20.23;;
55090;SDS011;40985;53.180;5.800;2023-04-01T07:36:52;27.60;;;19.98;;
55090;SDS011;40985;53.180;5.800;2023-04-01T07:39:36;26.88;;;19.52;;
55090;SDS011;40985;53.180;5.800;2023-04-01T07:47:25;26.65;;;19.33;;
55090;SDS011;40985;53.180;5.800;2023-04-01T07:50:20;25.30;;;19.73;;
55090;SDS011;40985;53.180;5.800;2023-04-01T07:53:01;27.48;;;19.10;;
55090;SDS011;40985;53.180;5.800;2023-04-01T08:02:06;36.03;;;21.33;;
55090;SDS011;40985;53.180;5.800;2023-04-01T08:07:25;38.45;;;21.08;;
55090;SDS011;40985;53.180;5.800;2023-04-01T08:12:58;35.35;;;20.88;;
55090;SDS011;40985;53.180;5.800;2023-04-01T08:15:28;31.77;;;19.70;;
55090;SDS011;40985;53.180;5.800;2023-04-01T08:20:54;29.55;;;19.02;;
55090;SDS011;40985;53.180;5.800;2023-04-01T08:23:32;25.38;;;16.95;;
55090;SDS011;40985;53.180;5.800;2023-04-01T08:26:04;21.73;;;14.82;;
55090;SDS011;40985;53.180;5.800;2023-04-01T08:28:57;23.67;;;14.18;;
55090;SDS011;40985;53.180;5.800;2023-04-01T08:33:59;21.00;;;14.00;;
55090;SDS011;40985;53.180;5.800;2023-04-01T08:36:36;18.45;;;11.82;;
55090;SDS011;40985;53.180;5.800;2023-04-01T08:39:07;17.38;;;9.25;;
55090;SDS011;40985;53.180;5.800;2023-04-01T08:57:24;7.95;;;4.50;;
55090;SDS011;40985;53.180;5.800;2023-04-01T09:00:34;7.90;;;4.50;;
55090;SDS011;40985;53.180;5.800;2023-04-01T09:03:20;7.40;;;4.32;;
55090;SDS011;40985;53.180;5.800;2023-04-01T09:20:27;9.98;;;5.72;;
55090;SDS011;40985;53.180;5.800;2023-04-01T09:25:51;6.80;;;4.68;;
55090;SDS011;40985;53.180;5.800;2023-04-01T09:28:28;5.93;;;4.70;;
55090;SDS011;40985;53.180;5.800;2023-04-01T09:36:49;3.85;;;2.40;;
55090;SDS011;40985;53.180;5.800;2023-04-01T09:53:44;4.40;;;0.60;;
55090;SDS011;40985;53.180;5.800;2023-04-01T09:56:50;2.40;;;0.98;;
55090;SDS011;40985;53.180;5.800;2023-04-01T09:59:46;5.32;;;1.45;;
55090;SDS011;40985;53.180;5.800;2023-04-01T10:05:32;5.00;;;2.38;;
55090;SDS011;40985;53.180;5.800;2023-04-01T10:08:26;5.88;;;2.00;;
55090;SDS011;40985;53.180;5.800;2023-04-01T10:36:43;4.22;;;1.75;;
55090;SDS011;40985;53.180;5.800;2023-04-01T10:53:34;3.63;;;2.10;;
55090;SDS011;40985;53.180;5.800;2023-04-01T10:56:23;4.65;;;1.25;;
55090;SDS011;40985;53.180;5.800;2023-04-01T11:01:53;4.15;;;1.58;;
55090;SDS011;40985;53.180;5.800;2023-04-01T11:18:51;4.47;;;1.55;;
55090;SDS011;40985;53.180;5.800;2023-04-01T11:21:55;3.05;;;1.25;;
55090;SDS011;40985;53.180;5.800;2023-04-01T11:38:27;1.20;;;0.45;;
55090;SDS011;40985;53.180;5.800;2023-04-01T11:41:02;2.90;;;0.50;;
55090;SDS011;40985;53.180;5.800;2023-04-01T11:43:55;2.70;;;0.50;;
55090;SDS011;40985;53.180;5.800;2023-04-01T11:49:33;2.63;;;0.50;;
55090;SDS011;40985;53.180;5.800;2023-04-01T11:54:42;6.65;;;2.15;;
55090;SDS011;40985;53.180;5.800;2023-04-01T12:00:41;1.30;;;0.50;;
55090;SDS011;40985;53.180;5.800;2023-04-01T12:03:31;1.73;;;0.70;;
55090;SDS011;40985;53.180;5.800;2023-04-01T12:06:02;2.10;;;0.60;;
55090;SDS011;40985;53.180;5.800;2023-04-01T12:08:44;1.20;;;0.60;;
55090;SDS011;40985;53.180;5.800;2023-04-01T12:11:33;1.35;;;0.50;;
55090;SDS011;40985;53.180;5.800;2023-04-01T12:19:26;1.10;;;0.50;;
55090;SDS011;40985;53.180;5.800;2023-04-01T12:22:02;2.15;;;0.60;;
55090;SDS011;40985;53.180;5.800;2023-04-01T12:41:55;1.42;;;0.60;;
55090;SDS011;40985;53.180;5.800;2023-04-01T12:44:39;2.13;;;0.40;;
55090;SDS011;40985;53.180;5.800;2023-04-01T12:55:44;1.70;;;0.40;;
55090;SDS011;40985;53.180;5.800;2023-04-01T13:06:47;2.50;;;0.40;;
55090;SDS011;40985;53.180;5.800;2023-04-01T13:17:28;1.83;;;0.40;;
55090;SDS011;40985;53.180;5.800;2023-04-01T13:20:03;1.65;;;0.40;;
55090;SDS011;40985;53.180;5.800;2023-04-01T13:25:24;0.90;;;0.30;;
55090;SDS011;40985;53.180;5.800;2023-04-01T13:28:00;1.38;;;0.40;;
55090;SDS011;40985;53.180;5.800;2023-04-01T13:33:38;1.27;;;0.35;;
55090;SDS011;40985;53.180;5.800;2023-04-01T13:36:41;3.60;;;0.40;;
55090;SDS011;40985;53.180;5.800;2023-04-01T13:39:26;2.70;;;0.40;;
55090;SDS011;40985;53.180;5.800;2023-04-01T13:42:20;1.48;;;0.50;;
55090;SDS011;40985;53.180;5.800;2023-04-01T13:45:15;1.10;;;0.38;;
55090;SDS011;40985;53.180;5.800;2023-04-01T14:01:31;5.25;;;0.70;;
55090;SDS011;40985;53.180;5.800;2023-04-01T14:10:25;2.60;;;0.50;;
55090;SDS011;40985;53.180;5.800;2023-04-01T14:13:07;2.20;;;0.50;;
55090;SDS011;40985;53.180;5.800;2023-04-01T14:32:02;1.52;;;0.30;;
55090;SDS011;40985;53.180;5.800;2023-04-01T14:43:55;1.60;;;0.20;;
55090;SDS011;40985;53.180;5.800;2023-04-01T14:49:41;2.00;;;0.77;;
55090;SDS011;40985;53.180;5.800;2023-04-01T14:52:32;3.28;;;0.40;;
55090;SDS011;40985;53.180;5.800;2023-04-01T14:54:59;1.23;;;0.30;;
55090;SDS011;40985;53.180;5.800;2023-04-01T14:57:33;2.05;;;0.40;;
55090;SDS011;40985;53.180;5.800;2023-04-01T15:02:51;1.02;;;0.43;;
55090;SDS011;40985;53.180;5.800;2023-04-01T15:08:17;1.00;;;0.50;;
55090;SDS011;40985;53.180;5.800;2023-04-01T15:19:20;3.33;;;0.50;;
55090;SDS011;40985;53.180;5.800;2023-04-01T15:27:40;2.45;;;0.75;;
55090;SDS011;40985;53.180;5.800;2023-04-01T15:30:32;3.42;;;1.10;;
55090;SDS011;40985;53.180;5.800;2023-04-01T15:35:41;5.10;;;1.20;;
55090;SDS011;40985;53.180;5.800;2023-04-01T15:38:36;5.47;;;1.60;;
55090;SDS011;40985;53.180;5.800;2023-04-01T15:41:07;3.25;;;1.38;;
55090;SDS011;40985;53.180;5.800;2023-04-01T15:54:05;3.70;;;1.80;;
55090;SDS011;40985;53.180;5.800;2023-04-01T16:08:41;5.03;;;1.83;;
55090;SDS011;40985;53.180;5.800;2023-04-01T16:11:22;4.32;;;1.45;;
55090;SDS011;40985;53.180;5.800;2023-04-01T16:17:17;6.35;;;2.92;;
55090;SDS011;40985;53.180;5.800;2023-04-01T16:22:59;3.83;;;2.20;;
55090;SDS011;40985;53.180;5.800;2023-04-01T16:31:14;7.45;;;2.78;;
55090;SDS011;40985;53.180;5.800;2023-04-01T16:34:04;5.70;;;2.67;;
55090;SDS011;40985;53.180;5.800;2023-04-01T16:36:47;8.02;;;3.17;;
55090;SDS011;40985;53.180;5.800;2023-04-01T16:39:28;9.10;;;3.28;;
55090;SDS011;40985;53.180;5.800;2023-04-01T16:47:54;7.45;;;3.42;;
55090;SDS011;40985;53.180;5.800;2023-04-01T16:56:23;9.52;;;4.60;;
55090;SDS011;40985;53.180;5.800;2023-04-01T17:07:26;9.05;;;4.32;;
55090;SDS011;40985;53.180;5.800;2023-04-01T17:10:16;11.85;;;4.10;;
55090;SDS011;40985;53.180;5.800;2023-04-01T17:13:10;9.18;;;4.25;;
55090;SDS011;40985;53.180;5.800;2023-04-01T17:18:42;7.40;;;4.22;;
55090;SDS011;40985;53.180;5.800;2023-04-01T17:24:36;11.85;;;3.75;;
55090;SDS011;40985;53.180;5.800;2023-04-01T17:27:26;9.70;;;4.15;;
55090;SDS011;40985;53.180;5.800;2023-04-01T17:30:20;8.52;;;4.28;;
55090;SDS011;40985;53.180;5.800;2023-04-01T17:33:10;11.25;;;4.63;;
55090;SDS011;40985;53.180;5.800;2023-04-01T17:35:39;9.98;;;5.13;;
55090;SDS011;40985;53.180;5.800;2023-04-01T17:41:47;13.38;;;4.35;;
55090;SDS011;40985;53.180;5.800;2023-04-01T17:52:34;8.07;;;4.05;;
55090;SDS011;40985;53.180;5.800;2023-04-01T17:58:17;6.88;;;3.55;;
55090;SDS011;40985;53.180;5.800;2023-04-01T18:00:58;8.45;;;4.00;;
55090;SDS011;40985;53.180;5.800;2023-04-01T18:03:50;6.80;;;3.70;;
55090;SDS011;40985;53.180;5.800;2023-04-01T18:07:31;10.98;;;5.00;;
55090;SDS011;40985;53.180;5.800;2023-04-01T18:12:21;6.85;;;3.92;;
55090;SDS011;40985;53.180;5.800;2023-04-01T18:15:02;7.72;;;3.80;;
55090;SDS011;40985;53.180;5.800;2023-04-01T18:25:46;9.70;;;4.03;;
55090;SDS011;40985;53.180;5.800;2023-04-01T18:31:06;8.45;;;3.95;;
55090;SDS011;40985;53.180;5.800;2023-04-01T18:44:56;10.23;;;4.47;;
55090;SDS011;40985;53.180;5.800;2023-04-01T18:47:38;8.63;;;4.72;;
55090;SDS011;40985;53.180;5.800;2023-04-01T18:52:47;8.15;;;3.92;;
55090;SDS011;40985;53.180;5.800;2023-04-01T18:55:53;10.63;;;4.13;;
55090;SDS011;40985;53.180;5.800;2023-04-01T18:58:22;8.07;;;4.50;;
55090;SDS011;40985;53.180;5.800;2023-04-01T19:06:17;8.93;;;4.75;;
55090;SDS011;40985;53.180;5.800;2023-04-01T19:09:18;10.70;;;4.45;;
55090;SDS011;40985;53.180;5.800;2023-04-01T19:11:53;10.05;;;4.35;;
55090;SDS011;40985;53.180;5.800;2023-04-01T19:30:55;10.25;;;4.85;;
55090;SDS011;40985;53.180;5.800;2023-04-01T19:47:03;7.72;;;4.32;;
55090;SDS011;40985;53.180;5.800;2023-04-01T19:49:51;8.90;;;3.90;;
55090;SDS011;40985;53.180;5.800;2023-04-01T19:55:05;13.15;;;4.45;;
55090;SDS011;40985;53.180;5.800;2023-04-01T19:58:05;11.23;;;4.50;;
55090;SDS011;40985;53.180;5.800;2023-04-01T20:00:50;9.52;;;4.03;;
55090;SDS011;40985;53.180;5.800;2023-04-01T20:14:54;9.60;;;5.15;;
55090;SDS011;40985;53.180;5.800;2023-04-01T20:17:23;9.48;;;4.45;;
55090;SDS011;40985;53.180;5.800;2023-04-01T20:20:00;12.10;;;5.22;;
55090;SDS011;40985;53.180;5.800;2023-04-01T20:25:19;9.00;;;4.78;;
55090;SDS011;40985;53.180;5.800;2023-04-01T20:28:01;10.88;;;5.28;;
55090;SDS011;40985;53.180;5.800;2023-04-01T20:31:32;6.25;;;4.15;;
55090;SDS011;40985;53.180;5.800;2023-04-01T20:36:56;8.88;;;3.97;;
55090;SDS011;40985;53.180;5.800;2023-04-01T20:39:33;11.77;;;4.70;;
55090;SDS011;40985;53.180;5.800;2023-04-01T20:48:02;8.30;;;3.45;;
55090;SDS011;40985;53.180;5.800;2023-04-01T20:50:51;9.63;;;4.53;;
55090;SDS011;40985;53.180;5.800;2023-04-01T21:02:48;8.57;;;3.38;;
55090;SDS011;40985;53.180;5.800;2023-04-01T21:11:05;8.88;;;3.13;;
55090;SDS011;40985;53.180;5.800;2023-04-01T21:13:53;7.43;;;2.78;;
55090;SDS011;40985;53.180;5.800;2023-04-01T21:17:04;8.38;;;3.10;;
55090;SDS011;40985;53.180;5.800;2023-04-01T21:20:03;11.23;;;2.53;;
55090;SDS011;40985;53.180;5.800;2023-04-01T21:25:52;7.88;;;2.72;;
55090;SDS011;40985;53.180;5.800;2023-04-01T21:28:55;9.23;;;2.72;;
55090;SDS011;40985;53.180;5.800;2023-04-01T21:40:28;11.05;;;3.15;;
55090;SDS011;40985;53.180;5.800;2023-04-01T21:48:47;7.45;;;3.10;;
55090;SDS011;40985;53.180;5.800;2023-04-01T21:56:54;8.07;;;2.70;;
55090;SDS011;40985;53.180;5.800;2023-04-01T22:05:36;7.68;;;3.03;;
55090;SDS011;40985;53.180;5.800;2023-04-01T22:08:22;8.00;;;2.83;;
55090;SDS011;40985;53.180;5.800;2023-04-01T22:14:26;10.15;;;2.42;;
55090;SDS011;40985;53.180;5.800;2023-04-01T22:16:59;8.45;;;2.95;;
55090;SDS011;40985;53.180;5.800;2023-04-01T22:22:22;8.15;;;3.42;;
55090;SDS011;40985;53.180;5.800;2023-04-01T22:25:18;6.97;;;2.92;;
55090;SDS011;40985;53.180;5.800;2023-04-01T22:28:03;6.28;;;2.33;;
55090;SDS011;40985;53.180;5.800;2023-04-01T22:30:39;6.30;;;2.75;;
55090;SDS011;40985;53.180;5.800;2023-04-01T22:33:31;6.03;;;2.78;;
55090;SDS011;40985;53.180;5.800;2023-04-01T22:38:49;7.82;;;2.28;;
55090;SDS011;40985;53.180;5.800;2023-04-01T22:41:28;9.02;;;2.10;;
55090;SDS011;40985;53.180;5.800;2023-04-01T22:44:03;7.65;;;2.47;;
55090;SDS011;40985;53.180;5.800;2023-04-01T22:51:53;6.22;;;2.65;;
55090;SDS011;40985;53.180;5.800;2023-04-01T22:54:31;8.70;;;2.72;;
55090;SDS011;40985;53.180;5.800;2023-04-01T22:57:12;6.22;;;2.50;;
55090;SDS011;40985;53.180;5.800;2023-04-01T22:59:57;9.57;;;2.45;;
55090;SDS011;40985;53.180;5.800;2023-04-01T23:02:25;4.72;;;2.20;;
55090;SDS011;40985;53.180;5.800;2023-04-01T23:04:55;6.22;;;2.05;;
55090;SDS011;40985;53.180;5.800;2023-04-01T23:07:27;7.07;;;2.15;;
55090;SDS011;40985;53.180;5.800;2023-04-01T23:13:18;6.65;;;3.03;;
55090;SDS011;40985;53.180;5.800;2023-04-01T23:15:50;6.95;;;2.65;;
55090;SDS011;40985;53.180;5.800;2023-04-01T23:21:43;7.25;;;1.92;;
55090;SDS011;40985;53.180;5.800;2023-04-01T23:24:25;8.07;;;2.10;;
55090;SDS011;40985;53.180;5.800;2023-04-01T23:27:00;8.70;;;2.25;;
55090;SDS011;40985;53.180;5.800;2023-04-01T23:29:38;6.47;;;1.33;;
55090;SDS011;40985;53.180;5.800;2023-04-01T23:32:17;6.03;;;1.25;;
55090;SDS011;40985;53.180;5.800;2023-04-01T23:34:51;6.43;;;1.33;;
55090;SDS011;40985;53.180;5.800;2023-04-01T23:37:18;8.02;;;1.58;;
55090;SDS011;40985;53.180;5.800;2023-04-01T23:39:46;7.68;;;1.58;;
55090;SDS011;40985;53.180;5.800;2023-04-01T23:42:23;7.65;;;1.50;;
55090;SDS011;40985;53.180;5.800;2023-04-01T23:45:05;8.65;;;1.42;;
55090;SDS011;40985;53.180;5.800;2023-04-01T23:47:38;7.82;;;1.90;;
55090;SDS011;40985;53.180;5.800;2023-04-01T23:50:13;9.35;;;1.20;;
55090;SDS011;40985;53.180;5.800;2023-04-01T23:52:40;5.82;;;1.75;;
55090;SDS011;40985;53.180;5.800;2023-04-01T23:55:19;5.10;;;1.48;;
55090;SDS011;40985;53.180;5.800;2023-04-01T23:58:01;6.35;;;1.63;;
